Time;durP1;ratioP1;P1;durP2;ratioP2;P2;SDS_P1;SDS_P2;PMS_P1;PMS_P2;Temp;Humidity;BMP_temperature;BMP_pressure;BME280_temperature;BME280_humidity;BME280_pressure;Samples;Min_cycle;Max_cycle;Signal;HPM_P1;HPM_P2
2022/03/24 00:01:50;;;;;;;27.40;14.43;;;;;;;;;;5089881;28;20052;-71
2022/03/24 00:04:16;;;;;;;30.02;15.23;;;;;;;;;;5089917;28;20063;-71
2022/03/24 00:06:41;;;;;;;27.15;15.05;;;;;;;;;;5089783;28;20055;-70
2022/03/24 00:09:07;;;;;;;25.13;13.75;;;;;;;;;;5089585;28;20046;-70
2022/03/24 00:11:34;;;;;;;24.90;14.82;;;;;;;;;;5088976;28;20056;-71
2022/03/24 00:14:00;;;;;;;27.60;14.80;;;;;;;;;;5088550;28;20036;-70
2022/03/24 00:16:29;;;;;;;30.77;15.50;;;;;;;;;;5093745;28;20020;-69
2022/03/24 00:18:55;;;;;;;24.50;14.52;;;;;;;;;;5093662;28;20032;-70
2022/03/24 00:21:21;;;;;;;29.20;15.20;;;;;;;;;;5092658;28;20040;-69
2022/03/24 00:23:47;;;;;;;25.35;14.63;;;;;;;;;;5093720;28;20040;-70
2022/03/24 00:26:13;;;;;;;23.65;14.57;;;;;;;;;;5093635;28;20102;-70
2022/03/24 00:28:42;;;;;;;24.17;13.82;;;;;;;;;;5110841;28;20054;-71
2022/03/24 00:31:09;;;;;;;25.05;14.00;;;;;;;;;;5112037;28;20036;-70
2022/03/24 00:33:39;;;;;;;24.60;14.40;;;;;;;;;;5113923;28;20381;-71
2022/03/24 00:36:05;;;;;;;25.77;15.23;;;;;;;;;;5113854;28;20035;-70
2022/03/24 00:38:31;;;;;;;27.85;15.45;;;;;;;;;;5113643;28;20028;-70
2022/03/24 00:40:57;;;;;;;26.75;14.45;;;;;;;;;;5113604;28;20542;-71
2022/03/24 00:43:24;;;;;;;29.75;13.82;;;;;;;;;;5108929;28;20020;-69
2022/03/24 00:45:51;;;;;;;24.92;15.45;;;;;;;;;;5093217;28;20028;-70
2022/03/24 00:48:18;;;;;;;24.25;14.77;;;;;;;;;;5093086;28;20028;-70
2022/03/24 00:50:47;;;;;;;26.50;14.02;;;;;;;;;;5093039;28;20028;-71
2022/03/24 00:53:13;;;;;;;24.95;13.13;;;;;;;;;;5093267;28;20024;-70
2022/03/24 00:55:39;;;;;;;26.13;14.05;;;;;;;;;;5091965;28;20522;-70
2022/03/24 00:58:06;;;;;;;24.25;12.80;;;;;;;;;;5093011;28;20031;-69
2022/03/24 01:00:32;;;;;;;21.65;11.57;;;;;;;;;;5093064;28;20043;-70
2022/03/24 01:02:58;;;;;;;24.90;12.75;;;;;;;;;;5093041;28;20468;-69
2022/03/24 01:05:28;;;;;;;24.00;12.63;;;;;;;;;;5092954;28;20067;-71
2022/03/24 01:07:54;;;;;;;24.00;12.82;;;;;;;;;;5092925;28;20028;-70
2022/03/24 01:10:21;;;;;;;21.90;12.73;;;;;;;;;;5092879;28;20042;-71
2022/03/24 01:12:51;;;;;;;23.83;12.13;;;;;;;;;;5092866;28;20028;-70
2022/03/24 01:15:20;;;;;;;22.23;11.90;;;;;;;;;;5092727;28;20032;-70
2022/03/24 01:17:47;;;;;;;26.52;12.70;;;;;;;;;;5092775;28;20423;-70
2022/03/24 01:20:14;;;;;;;24.85;13.50;;;;;;;;;;5090656;28;20526;-71
2022/03/24 01:22:40;;;;;;;25.63;13.25;;;;;;;;;;5092860;28;20020;-70
2022/03/24 01:25:07;;;;;;;23.55;13.05;;;;;;;;;;5092688;28;20024;-70
2022/03/24 01:27:34;;;;;;;24.75;13.30;;;;;;;;;;5091816;28;20036;-70
2022/03/24 01:30:01;;;;;;;26.45;12.88;;;;;;;;;;5092598;28;20024;-70
2022/03/24 01:32:27;;;;;;;25.40;12.88;;;;;;;;;;5092701;28;20050;-70
2022/03/24 01:34:55;;;;;;;21.73;12.05;;;;;;;;;;5092615;28;20024;-71
2022/03/24 01:37:23;;;;;;;29.85;13.93;;;;;;;;;;5094286;28;20031;-70
2022/03/24 01:39:52;;;;;;;22.77;12.13;;;;;;;;;;5092916;28;20020;-70
2022/03/24 01:42:19;;;;;;;22.35;13.20;;;;;;;;;;5090837;28;20047;-70
2022/03/24 01:44:49;;;;;;;26.50;12.57;;;;;;;;;;5092520;28;20035;-70
2022/03/24 01:47:18;;;;;;;23.42;12.90;;;;;;;;;;5092380;28;20376;-71
2022/03/24 01:49:58;;;;;;;25.98;13.65;;;;;;;;;;5092266;28;20028;-69
2022/03/24 01:52:25;;;;;;;26.17;13.23;;;;;;;;;;5092399;28;20412;-69
2022/03/24 01:54:57;;;;;;;27.15;14.13;;;;;;;;;;5092279;28;20032;-70
2022/03/24 01:57:26;;;;;;;32.60;14.00;;;;;;;;;;5092208;28;20055;-69
2022/03/24 01:59:53;;;;;;;24.48;12.60;;;;;;;;;;5090930;28;20035;-70
2022/03/24 02:02:20;;;;;;;30.73;13.95;;;;;;;;;;5092129;28;20035;-70
2022/03/24 02:04:50;;;;;;;29.08;13.65;;;;;;;;;;5092046;28;20024;-70
2022/03/24 02:07:16;;;;;;;27.63;14.35;;;;;;;;;;5091941;28;20378;-71
2022/03/24 02:09:45;;;;;;;24.42;13.75;;;;;;;;;;5091884;28;20488;-70
2022/03/24 02:12:12;;;;;;;28.15;13.88;;;;;;;;;;5091513;28;20040;-69
2022/03/24 02:14:41;;;;;;;23.30;14.25;;;;;;;;;;5091936;28;20039;-71
2022/03/24 02:17:07;;;;;;;25.48;13.57;;;;;;;;;;5091857;28;20038;-70
2022/03/24 02:19:36;;;;;;;28.15;14.13;;;;;;;;;;5091502;28;20032;-70
2022/03/24 02:22:16;;;;;;;25.88;12.63;;;;;;;;;;5091173;28;20047;-70
2022/03/24 02:24:42;;;;;;;27.35;12.95;;;;;;;;;;5090110;28;20024;-71
2022/03/24 02:27:10;;;;;;;24.75;12.90;;;;;;;;;;5089871;28;20032;-70
2022/03/24 02:29:36;;;;;;;25.38;13.77;;;;;;;;;;5089698;28;20024;-70
2022/03/24 02:32:11;;;;;;;23.42;12.27;;;;;;;;;;5089892;28;20434;-70
2022/03/24 02:34:37;;;;;;;26.50;13.27;;;;;;;;;;5097478;28;20484;-70
2022/03/24 02:37:15;;;;;;;22.67;13.07;;;;;;;;;;5108680;28;20031;-69
2022/03/24 02:39:44;;;;;;;27.33;13.45;;;;;;;;;;5091237;28;20035;-70
2022/03/24 02:42:14;;;;;;;21.83;12.70;;;;;;;;;;5093371;27;20488;-70
2022/03/24 02:44:43;;;;;;;22.42;13.23;;;;;;;;;;5113915;27;20024;-71
2022/03/24 02:47:12;;;;;;;22.77;12.57;;;;;;;;;;5090965;28;20032;-70
2022/03/24 02:49:39;;;;;;;28.85;13.48;;;;;;;;;;5090862;28;20032;-70
2022/03/24 02:52:07;;;;;;;25.98;13.18;;;;;;;;;;5089540;28;20107;-70
2022/03/24 02:54:34;;;;;;;25.85;13.32;;;;;;;;;;5090874;28;20028;-70
2022/03/24 02:57:00;;;;;;;28.60;14.20;;;;;;;;;;5090579;28;20436;-70
2022/03/24 02:59:27;;;;;;;27.20;12.85;;;;;;;;;;5090718;28;20032;-70
2022/03/24 03:01:59;;;;;;;24.67;13.73;;;;;;;;;;5090843;28;20024;-70
2022/03/24 03:04:26;;;;;;;25.50;13.55;;;;;;;;;;5090839;28;20031;-70
2022/03/24 03:06:54;;;;;;;24.80;13.35;;;;;;;;;;5090494;28;20072;-71
2022/03/24 03:09:21;;;;;;;29.45;13.43;;;;;;;;;;5090541;28;20396;-70
2022/03/24 03:11:48;;;;;;;27.65;14.57;;;;;;;;;;5090481;28;20028;-71
2022/03/24 03:14:16;;;;;;;23.98;13.50;;;;;;;;;;5090589;28;20027;-71
2022/03/24 03:16:43;;;;;;;24.63;13.57;;;;;;;;;;5090259;28;20028;-71
2022/03/24 03:19:09;;;;;;;25.58;12.95;;;;;;;;;;5090205;28;20023;-70
2022/03/24 03:21:41;;;;;;;23.75;12.85;;;;;;;;;;5090408;28;20491;-69
2022/03/24 03:24:08;;;;;;;25.45;12.45;;;;;;;;;;5090250;28;20039;-70
2022/03/24 03:26:35;;;;;;;23.58;13.15;;;;;;;;;;5090182;28;20024;-70
2022/03/24 03:29:01;;;;;;;25.25;13.80;;;;;;;;;;5088540;28;20039;-70
2022/03/24 03:31:30;;;;;;;23.98;13.15;;;;;;;;;;5090114;28;20035;-70
2022/03/24 03:33:55;;;;;;;26.50;13.45;;;;;;;;;;5090138;28;20380;-70
2022/03/24 03:36:23;;;;;;;26.13;14.23;;;;;;;;;;5088542;28;20036;-70
2022/03/24 03:38:49;;;;;;;24.15;13.82;;;;;;;;;;5089909;28;20476;-70
2022/03/24 03:41:17;;;;;;;26.60;14.30;;;;;;;;;;5090493;28;20039;-70
2022/03/24 03:43:43;;;;;;;28.67;14.52;;;;;;;;;;5090259;28;20023;-68
2022/03/24 03:46:10;;;;;;;27.58;14.93;;;;;;;;;;5090007;28;20388;-68
2022/03/24 03:48:39;;;;;;;26.08;14.38;;;;;;;;;;5089926;28;20032;-69
2022/03/24 03:51:06;;;;;;;28.27;15.35;;;;;;;;;;5089452;28;20371;-69
2022/03/24 03:53:33;;;;;;;31.90;15.43;;;;;;;;;;5089936;28;20059;-69
2022/03/24 03:56:04;;;;;;;28.70;15.05;;;;;;;;;;5089901;28;20028;-69
2022/03/24 03:58:34;;;;;;;35.47;15.50;;;;;;;;;;5090004;28;20415;-68
2022/03/24 04:01:00;;;;;;;36.77;16.83;;;;;;;;;;5090110;28;20481;-70
2022/03/24 04:03:28;;;;;;;27.45;16.35;;;;;;;;;;5090079;28;20032;-69
2022/03/24 04:05:56;;;;;;;29.02;15.63;;;;;;;;;;5089787;28;20063;-70
2022/03/24 04:08:22;;;;;;;27.33;14.35;;;;;;;;;;5088581;28;20043;-70
2022/03/24 04:10:52;;;;;;;33.83;15.95;;;;;;;;;;5089716;28;20056;-71
2022/03/24 04:13:19;;;;;;;38.67;16.10;;;;;;;;;;5089907;28;20508;-70
2022/03/24 04:15:46;;;;;;;35.00;16.05;;;;;;;;;;5088641;28;20036;-70
2022/03/24 04:18:13;;;;;;;42.17;15.93;;;;;;;;;;5089673;28;20029;-70
2022/03/24 04:20:39;;;;;;;43.20;16.95;;;;;;;;;;5089749;28;20388;-70
2022/03/24 04:23:05;;;;;;;36.78;15.57;;;;;;;;;;5089792;28;20491;-70
2022/03/24 04:25:32;;;;;;;36.67;16.70;;;;;;;;;;5088593;28;20036;-70
2022/03/24 04:27:59;;;;;;;35.10;17.00;;;;;;;;;;5089681;28;20032;-70
2022/03/24 04:30:28;;;;;;;31.55;15.60;;;;;;;;;;5092665;28;20028;-70
2022/03/24 04:32:54;;;;;;;30.95;16.38;;;;;;;;;;5109274;28;20023;-70
2022/03/24 04:35:24;;;;;;;34.25;17.15;;;;;;;;;;5110063;28;20047;-70
2022/03/24 04:37:50;;;;;;;37.92;16.38;;;;;;;;;;5110097;28;20472;-70
2022/03/24 04:40:18;;;;;;;36.92;16.13;;;;;;;;;;5109912;28;20042;-70
2022/03/24 04:42:47;;;;;;;41.55;16.67;;;;;;;;;;5110180;28;20050;-70
2022/03/24 04:45:13;;;;;;;41.60;17.17;;;;;;;;;;5109894;28;20027;-70
2022/03/24 04:47:43;;;;;;;36.83;16.50;;;;;;;;;;5109959;28;20031;-70
2022/03/24 04:50:10;;;;;;;34.97;16.48;;;;;;;;;;5109862;28;20027;-70
2022/03/24 04:52:36;;;;;;;34.45;16.98;;;;;;;;;;5109950;28;20039;-70
2022/03/24 04:55:02;;;;;;;38.65;16.00;;;;;;;;;;5110081;28;20051;-69
2022/03/24 04:57:29;;;;;;;32.78;16.08;;;;;;;;;;5109899;28;20038;-69
2022/03/24 04:59:56;;;;;;;35.03;16.23;;;;;;;;;;5109814;28;20035;-70
2022/03/24 05:02:25;;;;;;;28.73;16.20;;;;;;;;;;5110344;28;20036;-69
2022/03/24 05:04:53;;;;;;;35.17;15.88;;;;;;;;;;5113575;28;20019;-70
2022/03/24 05:07:18;;;;;;;28.77;15.50;;;;;;;;;;5113566;28;20050;-70
2022/03/24 05:09:50;;;;;;;29.05;15.40;;;;;;;;;;5113602;28;20468;-70
2022/03/24 05:12:16;;;;;;;34.95;16.08;;;;;;;;;;5113271;28;20027;-70
2022/03/24 05:14:42;;;;;;;30.70;15.07;;;;;;;;;;5111572;28;20054;-70
2022/03/24 05:17:12;;;;;;;33.13;15.98;;;;;;;;;;5113252;28;20035;-69
2022/03/24 05:19:39;;;;;;;33.08;16.80;;;;;;;;;;5113365;28;20700;-70
2022/03/24 05:22:06;;;;;;;35.72;17.40;;;;;;;;;;5113347;28;20030;-69
2022/03/24 05:24:34;;;;;;;32.97;17.48;;;;;;;;;;5113224;28;20090;-69
2022/03/24 05:27:00;;;;;;;31.50;16.08;;;;;;;;;;5112899;28;20019;-69
2022/03/24 05:29:26;;;;;;;29.27;15.38;;;;;;;;;;5112836;28;20511;-69
2022/03/24 05:31:52;;;;;;;28.48;15.93;;;;;;;;;;5111502;28;20055;-72
2022/03/24 05:34:19;;;;;;;28.25;14.30;;;;;;;;;;5113017;28;20063;-70
2022/03/24 05:36:45;;;;;;;29.42;14.65;;;;;;;;;;5112723;28;20027;-70
2022/03/24 05:39:11;;;;;;;35.20;15.77;;;;;;;;;;5112681;28;20443;-70
2022/03/24 05:41:41;;;;;;;28.15;14.70;;;;;;;;;;5112777;28;20051;-70
2022/03/24 05:44:07;;;;;;;30.15;15.68;;;;;;;;;;5112486;28;20032;-71
2022/03/24 05:46:36;;;;;;;32.70;15.48;;;;;;;;;;5112394;28;20019;-70
2022/03/24 05:49:05;;;;;;;28.92;14.63;;;;;;;;;;5112326;28;20023;-72
2022/03/24 05:51:32;;;;;;;29.50;14.30;;;;;;;;;;5111157;28;20384;-71
2022/03/24 05:53:58;;;;;;;30.63;15.00;;;;;;;;;;5094028;28;20035;-69
2022/03/24 05:56:24;;;;;;;32.15;16.80;;;;;;;;;;5090730;28;20095;-69
2022/03/24 05:58:50;;;;;;;34.78;18.67;;;;;;;;;;5095418;28;20036;-70
2022/03/24 06:01:17;;;;;;;29.20;17.15;;;;;;;;;;5105319;28;20027;-71
2022/03/24 06:03:45;;;;;;;30.67;14.73;;;;;;;;;;5112061;28;20024;-70
2022/03/24 06:06:14;;;;;;;28.73;15.13;;;;;;;;;;5110120;28;20042;-70
2022/03/24 06:08:43;;;;;;;25.35;13.27;;;;;;;;;;5109882;28;20031;-71
2022/03/24 06:11:13;;;;;;;29.23;15.02;;;;;;;;;;5111642;28;20038;-70
2022/03/24 06:13:43;;;;;;;30.65;14.65;;;;;;;;;;5111264;28;20038;-69
2022/03/24 06:16:09;;;;;;;34.60;14.52;;;;;;;;;;5109700;28;20046;-69
2022/03/24 06:18:36;;;;;;;30.90;14.10;;;;;;;;;;5091249;28;20476;-69
2022/03/24 06:21:04;;;;;;;26.77;14.43;;;;;;;;;;5091189;28;20358;-69
2022/03/24 06:23:30;;;;;;;30.08;14.25;;;;;;;;;;5091210;28;20035;-70
2022/03/24 06:25:56;;;;;;;32.92;14.07;;;;;;;;;;5090516;28;20119;-70
2022/03/24 06:28:22;;;;;;;31.48;15.70;;;;;;;;;;5096865;28;20035;-71
2022/03/24 06:30:48;;;;;;;30.58;15.75;;;;;;;;;;5108917;28;20134;-72
2022/03/24 06:33:16;;;;;;;31.80;15.48;;;;;;;;;;5091810;28;20059;-70
2022/03/24 06:35:43;;;;;;;28.88;15.30;;;;;;;;;;5101576;28;20028;-70
2022/03/24 06:38:10;;;;;;;33.95;15.20;;;;;;;;;;5111042;28;20035;-70
2022/03/24 06:40:38;;;;;;;31.92;15.07;;;;;;;;;;5110662;28;20016;-70
2022/03/24 06:43:06;;;;;;;31.75;15.38;;;;;;;;;;5109739;28;20035;-70
2022/03/24 06:45:32;;;;;;;31.65;15.95;;;;;;;;;;5111192;28;20027;-70
2022/03/24 06:47:58;;;;;;;28.77;15.23;;;;;;;;;;5111088;28;20588;-70
2022/03/24 06:50:25;;;;;;;27.60;14.38;;;;;;;;;;5109562;28;20047;-71
2022/03/24 06:52:51;;;;;;;28.98;15.20;;;;;;;;;;5111292;28;20027;-70
2022/03/24 06:55:17;;;;;;;29.88;16.00;;;;;;;;;;5110530;28;20051;-71
2022/03/24 06:57:43;;;;;;;33.63;15.15;;;;;;;;;;5110076;28;20039;-69
2022/03/24 07:00:13;;;;;;;29.02;14.82;;;;;;;;;;5110518;28;20428;-71
2022/03/24 07:02:44;;;;;;;26.40;13.87;;;;;;;;;;5108895;28;20058;-70
2022/03/24 07:05:11;;;;;;;34.03;16.33;;;;;;;;;;5108887;28;20035;-70
2022/03/24 07:07:38;;;;;;;29.50;15.80;;;;;;;;;;5110280;28;20461;-70
2022/03/24 07:10:04;;;;;;;29.13;14.82;;;;;;;;;;5110630;28;20392;-71
2022/03/24 07:12:30;;;;;;;27.98;16.52;;;;;;;;;;5111021;28;20043;-70
2022/03/24 07:14:56;;;;;;;31.90;15.48;;;;;;;;;;5111081;28;20582;-70
2022/03/24 07:17:23;;;;;;;34.83;15.77;;;;;;;;;;5109250;28;20050;-71
2022/03/24 07:19:49;;;;;;;33.42;15.90;;;;;;;;;;5110975;28;20031;-70
2022/03/24 07:22:15;;;;;;;31.85;16.98;;;;;;;;;;5111056;28;20507;-70
2022/03/24 07:24:41;;;;;;;28.20;16.05;;;;;;;;;;5110373;28;20380;-70
2022/03/24 07:27:14;;;;;;;35.20;17.10;;;;;;;;;;5110836;28;20055;-70
2022/03/24 07:29:41;;;;;;;32.33;16.15;;;;;;;;;;5110948;28;20027;-71
2022/03/24 07:32:08;;;;;;;27.92;15.27;;;;;;;;;;5110925;28;20032;-71
2022/03/24 07:34:35;;;;;;;29.45;16.83;;;;;;;;;;5110857;28;20388;-71
2022/03/24 07:37:04;;;;;;;39.95;17.67;;;;;;;;;;5110710;28;20039;-71
2022/03/24 07:39:30;;;;;;;35.00;17.42;;;;;;;;;;5109235;28;20039;-71
2022/03/24 07:41:57;;;;;;;31.83;16.50;;;;;;;;;;5110690;28;20034;-70
2022/03/24 07:44:24;;;;;;;36.72;17.65;;;;;;;;;;5110754;28;20074;-70
2022/03/24 07:46:50;;;;;;;34.55;16.17;;;;;;;;;;5110530;28;20054;-69
2022/03/24 07:49:16;;;;;;;33.72;16.80;;;;;;;;;;5094384;28;20130;-70
2022/03/24 07:51:42;;;;;;;26.80;16.67;;;;;;;;;;5090307;28;20137;-70
2022/03/24 07:54:09;;;;;;;27.60;16.77;;;;;;;;;;5090371;28;20035;-70
2022/03/24 07:56:36;;;;;;;35.83;17.70;;;;;;;;;;5090236;28;20504;-70
2022/03/24 07:59:02;;;;;;;37.33;17.00;;;;;;;;;;5087936;28;20040;-70
2022/03/24 08:01:30;;;;;;;29.83;16.80;;;;;;;;;;5090229;28;20028;-69
2022/03/24 08:04:02;;;;;;;37.15;17.73;;;;;;;;;;5090250;28;20024;-69
2022/03/24 08:06:29;;;;;;;31.88;16.73;;;;;;;;;;5090142;28;20031;-70
2022/03/24 08:08:58;;;;;;;27.17;15.23;;;;;;;;;;5089832;28;20028;-70
2022/03/24 08:11:28;;;;;;;34.97;17.40;;;;;;;;;;5089888;28;20051;-70
2022/03/24 08:13:57;;;;;;;26.98;15.35;;;;;;;;;;5089984;28;20028;-71
2022/03/24 08:16:24;;;;;;;28.73;16.85;;;;;;;;;;5088786;28;20512;-70
2022/03/24 08:18:53;;;;;;;28.20;16.52;;;;;;;;;;5089836;28;20023;-71
2022/03/24 08:21:23;;;;;;;29.35;17.35;;;;;;;;;;5088525;28;20036;-70
2022/03/24 08:23:49;;;;;;;30.83;16.73;;;;;;;;;;5089812;28;20495;-71
2022/03/24 08:26:15;;;;;;;27.33;16.90;;;;;;;;;;5096326;28;20040;-71
2022/03/24 08:28:41;;;;;;;31.13;16.90;;;;;;;;;;5110048;28;20031;-71
2022/03/24 08:31:07;;;;;;;31.67;16.88;;;;;;;;;;5109841;28;20019;-71
2022/03/24 08:33:33;;;;;;;29.27;16.77;;;;;;;;;;5110078;28;20027;-70
2022/03/24 08:36:02;;;;;;;26.98;16.83;;;;;;;;;;5102915;28;20507;-71
2022/03/24 08:38:30;;;;;;;30.45;17.00;;;;;;;;;;5092303;28;20051;-70
2022/03/24 08:40:56;;;;;;;35.67;18.05;;;;;;;;;;5092177;28;20040;-70
2022/03/24 08:43:22;;;;;;;36.95;17.92;;;;;;;;;;5093525;28;20103;-71
2022/03/24 08:45:48;;;;;;;29.48;16.70;;;;;;;;;;5093416;28;20520;-71
2022/03/24 08:48:14;;;;;;;29.42;17.20;;;;;;;;;;5093680;27;20099;-70
2022/03/24 08:50:40;;;;;;;29.27;17.45;;;;;;;;;;5107642;28;20027;-70
2022/03/24 08:53:06;;;;;;;28.25;15.80;;;;;;;;;;5111246;28;20115;-69
2022/03/24 08:55:32;;;;;;;26.27;17.08;;;;;;;;;;5110759;28;20124;-70
2022/03/24 08:57:58;;;;;;;26.15;17.85;;;;;;;;;;5111088;28;20060;-70
2022/03/24 09:00:24;;;;;;;28.98;18.90;;;;;;;;;;5110861;28;20035;-71
2022/03/24 09:02:53;;;;;;;26.23;17.48;;;;;;;;;;5112474;28;20064;-71
2022/03/24 09:05:21;;;;;;;27.70;18.63;;;;;;;;;;5113146;28;20407;-72
2022/03/24 09:07:49;;;;;;;30.60;18.00;;;;;;;;;;5114973;28;20463;-72
2022/03/24 09:10:15;;;;;;;29.42;18.23;;;;;;;;;;5112728;28;20023;-72
2022/03/24 09:12:45;;;;;;;29.15;17.50;;;;;;;;;;5111237;28;20031;-72
2022/03/24 09:15:15;;;;;;;;;;;;;;;;;;5111500;28;20047;-72
2022/03/24 09:17:42;;;;;;;27.98;17.75;;;;;;;;;;5111015;28;19911;-72
2022/03/24 09:20:11;;;;;;;27.48;17.67;;;;;;;;;;5111198;28;20046;-73
2022/03/24 09:22:41;;;;;;;29.25;18.67;;;;;;;;;;5112553;28;20027;-70
2022/03/24 09:25:08;;;;;;;27.30;18.33;;;;;;;;;;5110445;28;20514;-71
2022/03/24 09:27:35;;;;;;;29.33;18.85;;;;;;;;;;5111771;28;20038;-72
2022/03/24 09:30:02;;;;;;;31.30;19.45;;;;;;;;;;5111126;28;20034;-73
2022/03/24 09:32:28;;;;;;;36.10;17.98;;;;;;;;;;5110582;28;20032;-72
2022/03/24 09:34:54;;;;;;;32.72;19.20;;;;;;;;;;5108584;28;20028;-72
2022/03/24 09:37:22;;;;;;;32.38;18.98;;;;;;;;;;5110164;28;20027;-71
2022/03/24 09:39:49;;;;;;;27.55;18.98;;;;;;;;;;5110441;28;20480;-71
2022/03/24 09:42:15;;;;;;;31.25;19.65;;;;;;;;;;5109510;28;20035;-71
2022/03/24 09:44:42;;;;;;;29.17;19.60;;;;;;;;;;5112287;28;20068;-71
2022/03/24 09:47:12;;;;;;;33.35;20.08;;;;;;;;;;5112208;28;20412;-73
2022/03/24 09:49:40;;;;;;;33.70;19.35;;;;;;;;;;5111552;27;20034;-71
2022/03/24 09:52:11;;;;;;;36.22;20.65;;;;;;;;;;5111648;28;20035;-71
2022/03/24 09:54:37;;;;;;;;;;;;;;;;;;5113145;28;20027;-72
2022/03/24 09:57:08;;;;;;;36.75;20.58;;;;;;;;;;5112472;28;19915;-72
2022/03/24 09:59:37;;;;;;;;;;;;;;;;;;5112922;28;20038;-71
2022/03/24 10:02:05;;;;;;;32.28;21.80;;;;;;;;;;5110562;28;19930;-72
2022/03/24 10:04:53;;;;;;;32.67;19.23;;;;;;;;;;5112167;28;20050;-71
2022/03/24 10:07:25;;;;;;;35.15;20.83;;;;;;;;;;5111952;28;20522;-71
2022/03/24 10:10:01;;;;;;;31.50;21.17;;;;;;;;;;5111936;28;20050;-72
2022/03/24 10:12:33;;;;;;;31.88;20.35;;;;;;;;;;5111893;28;20468;-71
2022/03/24 10:15:11;;;;;;;35.42;20.90;;;;;;;;;;5110455;28;20035;-72
2022/03/24 10:17:38;;;;;;;32.67;20.95;;;;;;;;;;5111188;28;20034;-71
2022/03/24 10:20:27;;;;;;;40.72;22.58;;;;;;;;;;5111697;28;20027;-72
2022/03/24 10:23:05;;;;;;;35.67;22.67;;;;;;;;;;5111010;28;20417;-72
2022/03/24 10:25:37;;;;;;;37.70;21.33;;;;;;;;;;5110145;28;20393;-72
2022/03/24 10:28:08;;;;;;;35.13;21.25;;;;;;;;;;5091535;28;20040;-72
2022/03/24 10:30:58;;;;;;;38.42;22.08;;;;;;;;;;5108174;28;20036;-72
2022/03/24 10:33:45;;;;;;;33.80;22.52;;;;;;;;;;5090894;28;20031;-72
2022/03/24 10:36:17;;;;;;;35.35;22.67;;;;;;;;;;5090807;28;20376;-71
2022/03/24 10:38:49;;;;;;;34.72;23.25;;;;;;;;;;5093596;28;20020;-71
2022/03/24 10:41:29;;;;;;;42.03;24.45;;;;;;;;;;5091019;28;20119;-72
2022/03/24 10:44:09;;;;;;;34.95;24.52;;;;;;;;;;5090890;28;20050;-72
2022/03/24 10:46:37;;;;;;;35.05;23.80;;;;;;;;;;5091049;28;20493;-73
2022/03/24 10:49:26;;;;;;;37.65;24.20;;;;;;;;;;5090748;28;20365;-72
2022/03/24 10:51:54;;;;;;;35.30;24.88;;;;;;;;;;5090721;28;20024;-71
2022/03/24 10:55:01;;;;;;;38.45;23.98;;;;;;;;;;5090843;28;20034;-71
2022/03/24 10:57:36;;;;;;;33.72;23.70;;;;;;;;;;5090491;28;20058;-71
2022/03/24 11:00:04;;;;;;;38.40;23.38;;;;;;;;;;5089696;28;20512;-72
2022/03/24 11:02:32;;;;;;;41.03;24.33;;;;;;;;;;5090665;28;20420;-71
2022/03/24 11:05:02;;;;;;;38.10;25.10;;;;;;;;;;5090649;28;20023;-71
2022/03/24 11:07:34;;;;;;;39.00;25.15;;;;;;;;;;5090642;28;20028;-71
2022/03/24 11:10:16;;;;;;;37.67;25.48;;;;;;;;;;5090718;28;20027;-71
2022/03/24 11:12:43;;;;;;;39.17;25.38;;;;;;;;;;5090583;28;20033;-72
2022/03/24 11:15:19;;;;;;;44.10;27.40;;;;;;;;;;5090544;28;20032;-72
2022/03/24 11:17:51;;;;;;;36.70;24.48;;;;;;;;;;5090536;28;20023;-71
2022/03/24 11:20:35;;;;;;;37.53;24.88;;;;;;;;;;5090511;28;20035;-71
2022/03/24 11:23:16;;;;;;;39.60;24.90;;;;;;;;;;5089388;28;20035;-70
2022/03/24 11:25:43;;;;;;;41.83;24.50;;;;;;;;;;5090347;28;20062;-72
2022/03/24 11:28:14;;;;;;;35.88;24.98;;;;;;;;;;5089132;28;20028;-71
2022/03/24 11:30:41;;;;;;;41.78;26.55;;;;;;;;;;5088275;28;20036;-70
2022/03/24 11:33:13;;;;;;;43.03;25.63;;;;;;;;;;5090295;28;20435;-71
2022/03/24 11:35:40;;;;;;;40.13;25.77;;;;;;;;;;5090304;28;20027;-71
2022/03/24 11:38:13;;;;;;;34.63;24.20;;;;;;;;;;5089221;28;20036;-71
2022/03/24 11:40:46;;;;;;;37.13;26.33;;;;;;;;;;5090208;28;20028;-71
2022/03/24 11:43:19;;;;;;;37.60;24.45;;;;;;;;;;5090371;28;20024;-71
2022/03/24 11:46:02;;;;;;;40.97;24.13;;;;;;;;;;5092950;28;20381;-71
2022/03/24 11:48:49;;;;;;;38.10;24.38;;;;;;;;;;5089220;28;20044;-71
2022/03/24 11:51:20;;;;;;;43.78;25.00;;;;;;;;;;5089379;28;20040;-71
2022/03/24 11:54:06;;;;;;;37.20;25.10;;;;;;;;;;5090125;28;20031;-71
2022/03/24 11:56:33;;;;;;;39.17;24.67;;;;;;;;;;5089981;28;20024;-73
2022/03/24 11:59:01;;;;;;;39.50;25.70;;;;;;;;;;5090137;28;20649;-73
2022/03/24 12:01:31;;;;;;;33.47;23.75;;;;;;;;;;5102224;28;20031;-73
2022/03/24 12:04:03;;;;;;;37.65;24.38;;;;;;;;;;5110265;28;20027;-73
2022/03/24 12:06:52;;;;;;;47.10;25.85;;;;;;;;;;5107817;28;20047;-73
2022/03/24 12:09:25;;;;;;;47.33;24.48;;;;;;;;;;5109079;28;20027;-73
2022/03/24 12:12:06;;;;;;;36.00;23.58;;;;;;;;;;5111073;28;20032;-71
2022/03/24 12:14:36;;;;;;;37.13;25.95;;;;;;;;;;5111822;28;20023;-73
2022/03/24 12:17:05;;;;;;;37.60;24.70;;;;;;;;;;5113162;28;20034;-72
2022/03/24 12:19:47;;;;;;;34.90;24.70;;;;;;;;;;5113097;28;20490;-72
2022/03/24 12:22:43;;;;;;;35.67;24.27;;;;;;;;;;5112541;28;20020;-72
2022/03/24 12:25:12;;;;;;;36.05;23.80;;;;;;;;;;5113494;28;20034;-72
2022/03/24 12:28:01;;;;;;;33.90;24.10;;;;;;;;;;5113329;28;20020;-72
2022/03/24 12:30:53;;;;;;;38.73;26.43;;;;;;;;;;5114297;28;20023;-72
2022/03/24 12:33:41;;;;;;;34.17;25.20;;;;;;;;;;5105648;28;20020;-71
2022/03/24 12:36:13;;;;;;;36.13;24.65;;;;;;;;;;5100950;28;20023;-72
2022/03/24 12:38:45;;;;;;;37.47;24.42;;;;;;;;;;5114000;28;20376;-72
2022/03/24 12:41:17;;;;;;;35.25;23.55;;;;;;;;;;5113825;28;20038;-72
2022/03/24 12:43:56;;;;;;;35.00;23.02;;;;;;;;;;5113949;28;20497;-72
2022/03/24 12:46:39;;;;;;;35.73;23.73;;;;;;;;;;5113726;28;20028;-71
2022/03/24 12:49:26;;;;;;;31.58;21.40;;;;;;;;;;5113391;28;20758;-72
2022/03/24 12:52:01;;;;;;;36.67;23.77;;;;;;;;;;5113391;28;20661;-72
2022/03/24 12:54:29;;;;;;;32.33;23.85;;;;;;;;;;5113530;28;20023;-72
2022/03/24 12:57:26;;;;;;;40.13;23.33;;;;;;;;;;5113242;28;20387;-73
2022/03/24 12:59:52;;;;;;;31.52;23.20;;;;;;;;;;5113556;28;20384;-72
2022/03/24 13:02:19;;;;;;;34.75;24.38;;;;;;;;;;5113004;28;20024;-73
2022/03/24 13:04:50;;;;;;;35.08;24.10;;;;;;;;;;5111539;28;20477;-72
2022/03/24 13:07:21;;;;;;;32.45;23.88;;;;;;;;;;5111680;28;20392;-71
2022/03/24 13:10:07;;;;;;;34.50;23.95;;;;;;;;;;5112657;28;20016;-73
2022/03/24 13:12:36;;;;;;;35.13;24.13;;;;;;;;;;5109885;28;20387;-72
2022/03/24 13:15:05;;;;;;;39.25;24.65;;;;;;;;;;5112184;28;20029;-72
2022/03/24 13:17:32;;;;;;;36.83;24.13;;;;;;;;;;5110619;28;20031;-71
2022/03/24 13:20:04;;;;;;;34.47;24.15;;;;;;;;;;5109723;28;20047;-72
2022/03/24 13:22:34;;;;;;;36.13;23.90;;;;;;;;;;5110396;28;20024;-73
2022/03/24 13:25:10;;;;;;;34.88;24.00;;;;;;;;;;5111461;28;20030;-72
2022/03/24 13:27:39;;;;;;;38.30;23.33;;;;;;;;;;5112953;28;20043;-71
2022/03/24 13:30:16;;;;;;;35.47;22.95;;;;;;;;;;5112108;28;20031;-72
2022/03/24 13:32:52;;;;;;;32.58;22.15;;;;;;;;;;5112904;28;20047;-73
2022/03/24 13:35:21;;;;;;;34.25;22.08;;;;;;;;;;5112863;28;20024;-73
2022/03/24 13:37:58;;;;;;;31.15;22.50;;;;;;;;;;5112728;28;20398;-73
2022/03/24 13:40:29;;;;;;;30.85;21.50;;;;;;;;;;5110982;28;20652;-72
2022/03/24 13:42:56;;;;;;;34.42;23.38;;;;;;;;;;5112724;28;20468;-72
2022/03/24 13:45:25;;;;;;;32.75;22.38;;;;;;;;;;5112578;28;20423;-72
2022/03/24 13:47:55;;;;;;;30.73;22.23;;;;;;;;;;5112570;28;20168;-72
2022/03/24 13:50:24;;;;;;;32.95;23.67;;;;;;;;;;5112607;28;20039;-72
2022/03/24 13:52:51;;;;;;;35.47;25.10;;;;;;;;;;5112580;28;20040;-72
2022/03/24 13:55:32;;;;;;;39.33;24.40;;;;;;;;;;5108243;28;20015;-72
2022/03/24 13:57:59;;;;;;;34.58;23.33;;;;;;;;;;5092055;28;20024;-72
2022/03/24 14:00:30;;;;;;;36.80;24.08;;;;;;;;;;5090888;28;20059;-73
2022/03/24 14:03:14;;;;;;;33.40;23.13;;;;;;;;;;5092196;28;20365;-73
2022/03/24 14:06:11;;;;;;;33.72;23.88;;;;;;;;;;5091994;28;20035;-73
2022/03/24 14:09:06;;;;;;;39.05;24.25;;;;;;;;;;5092023;28;20031;-73
2022/03/24 14:11:36;;;;;;;33.75;24.17;;;;;;;;;;5090867;28;20047;-73
2022/03/24 14:14:24;;;;;;;34.40;23.90;;;;;;;;;;5091921;28;20055;-73
2022/03/24 14:16:52;;;;;;;33.33;23.02;;;;;;;;;;5091842;28;20032;-73
2022/03/24 14:19:22;;;;;;;39.42;24.42;;;;;;;;;;5091937;28;20028;-72
2022/03/24 14:21:50;;;;;;;37.40;23.25;;;;;;;;;;5092018;28;20024;-72
2022/03/24 14:24:43;;;;;;;37.55;22.67;;;;;;;;;;5090739;28;20038;-72
2022/03/24 14:27:20;;;;;;;35.08;23.00;;;;;;;;;;5091656;28;20032;-71
2022/03/24 14:30:11;;;;;;;34.72;22.60;;;;;;;;;;5099229;28;20051;-72
2022/03/24 14:32:42;;;;;;;31.67;22.33;;;;;;;;;;5112136;28;20024;-71
2022/03/24 14:35:17;;;;;;;34.40;23.13;;;;;;;;;;5112009;28;20024;-73